Time;durP1;ratioP1;P1;durP2;ratioP2;P2;SDS_P1;SDS_P2;PMS_P1;PMS_P2;Temp;Humidity;BMP_temperature;BMP_pressure;BME280_temperature;BME280_humidity;BME280_pressure;Samples;Min_cycle;Max_cycle;Signal;HPM_P1;HPM_P2
2022/01/18 00:01:42;;;;;;;12.85;2.55;;;9.10;99.90;;;;;;10535239;28;20067;-62
2022/01/18 00:06:48;;;;;;;11.60;2.30;;;9.10;99.90;;;;;;10531380;28;20114;-61
2022/01/18 00:12:28;;;;;;;10.80;2.30;;;9.10;99.90;;;;;;10532949;28;20398;-62
2022/01/18 00:17:40;;;;;;;10.85;2.50;;;9.10;99.90;;;;;;10523951;28;20055;-62
2022/01/18 00:22:41;;;;;;;18.17;3.60;;;9.20;99.90;;;;;;10537500;28;20386;-62
2022/01/18 00:27:41;;;;;;;9.32;1.95;;;9.10;99.90;;;;;;10533696;28;20021;-61
2022/01/18 00:38:30;;;;;;;13.20;1.88;;;9.00;99.90;;;;;;10473870;28;20052;-61
2022/01/18 00:43:31;;;;;;;8.27;2.17;;;9.00;99.90;;;;;;10500512;28;20056;-62
2022/01/18 00:48:34;;;;;;;11.35;2.00;;;9.00;99.90;;;;;;10490362;28;20056;-61
2022/01/18 00:53:37;;;;;;;13.18;2.03;;;9.00;99.90;;;;;;10480706;28;20454;-62
2022/01/18 00:58:43;;;;;;;8.57;2.03;;;9.00;99.90;;;;;;10496675;28;20041;-61
2022/01/18 01:03:43;;;;;;;8.05;1.67;;;9.00;99.90;;;;;;10489433;28;20116;-59
2022/01/18 01:08:45;;;;;;;7.10;2.13;;;9.00;99.90;;;;;;10499402;28;20013;-62
2022/01/18 01:13:48;;;;;;;9.02;1.77;;;8.90;99.90;;;;;;10489512;28;20322;-62
2022/01/18 01:45:27;;;;;;;7.57;1.77;;;8.90;99.90;;;;;;10539020;28;20039;-62
2022/01/18 01:50:42;;;;;;;8.40;2.15;;;8.90;99.90;;;;;;10519581;28;20036;-61
2022/01/18 01:55:43;;;;;;;8.10;2.00;;;8.90;99.90;;;;;;10499706;28;20055;-62
2022/01/18 02:00:48;;;;;;;13.75;2.47;;;8.90;99.90;;;;;;10535566;28;20024;-61
2022/01/18 02:05:49;;;;;;;9.45;2.17;;;8.90;99.90;;;;;;10497754;28;20023;-62
2022/01/18 02:10:50;;;;;;;7.57;2.22;;;8.90;99.90;;;;;;10517959;28;20028;-62
2022/01/18 02:26:22;;;;;;;8.05;1.95;;;8.80;99.90;;;;;;10528551;28;20028;-60
2022/01/18 02:31:23;;;;;;;8.93;2.42;;;8.80;99.90;;;;;;10528002;28;20482;-62
2022/01/18 02:36:24;;;;;;;8.65;1.90;;;8.80;99.90;;;;;;10527342;28;20060;-63
2022/01/18 02:41:29;;;;;;;7.82;1.83;;;8.80;99.90;;;;;;10528302;28;20024;-61
2022/01/18 02:46:30;;;;;;;8.90;1.70;;;8.80;99.90;;;;;;10529808;28;20075;-62
2022/01/18 02:51:32;;;;;;;15.82;2.33;;;8.80;99.90;;;;;;10510968;28;20078;-61
2022/01/18 02:56:43;;;;;;;6.72;2.00;;;8.90;99.90;;;;;;10531048;28;20024;-62
2022/01/18 03:07:04;;;;;;;8.38;1.77;;;8.80;99.90;;;;;;10537095;28;20123;-63
2022/01/18 03:12:07;;;;;;;12.13;2.40;;;8.80;99.90;;;;;;10526097;28;20024;-62
2022/01/18 03:17:08;;;;;;;6.72;1.98;;;8.80;99.90;;;;;;10525789;28;20043;-62
2022/01/18 03:22:09;;;;;;;8.60;2.97;;;8.80;99.90;;;;;;10528098;28;20358;-63
2022/01/18 03:32:29;;;;;;;6.97;2.28;;;8.80;99.90;;;;;;10522348;28;20021;-63
2022/01/18 03:37:30;;;;;;;9.63;2.08;;;8.80;99.90;;;;;;10524679;28;20048;-62
2022/01/18 03:42:39;;;;;;;4.95;2.15;;;8.80;99.90;;;;;;10536274;28;20032;-62
2022/01/18 03:47:40;;;;;;;;;;;8.80;99.90;;;;;;10522031;28;20036;-63
2022/01/18 03:52:42;;;;;;;7.55;2.20;;;8.80;99.90;;;;;;10522626;28;19916;-62
2022/01/18 03:57:43;;;;;;;8.68;2.17;;;8.80;99.90;;;;;;10538884;28;20556;-63
2022/01/18 04:02:44;;;;;;;10.25;2.05;;;8.80;99.90;;;;;;10529411;28;20140;-61
2022/01/18 04:07:46;;;;;;;6.47;1.73;;;8.80;99.90;;;;;;10522821;28;20123;-62
2022/01/18 04:12:47;;;;;;;8.85;2.13;;;8.80;99.90;;;;;;10525264;28;20029;-61
2022/01/18 04:28:23;;;;;;;7.32;1.77;;;8.80;99.90;;;;;;10523748;28;20035;-61
2022/01/18 04:33:24;;;;;;;9.23;2.55;;;8.90;99.90;;;;;;10531178;28;20059;-61
2022/01/18 04:38:25;;;;;;;12.05;2.10;;;8.70;99.90;;;;;;10532289;28;20147;-62
2022/01/18 04:44:05;;;;;;;6.10;2.15;;;8.80;99.90;;;;;;10541334;28;20051;-62
2022/01/18 04:48:48;;;;;;;7.20;2.00;;;8.70;99.90;;;;;;10530787;28;20098;-62
2022/01/18 04:53:56;;;;;;;6.28;2.17;;;8.70;99.90;;;;;;10520539;28;20392;-60
2022/01/18 04:58:57;;;;;;;5.65;1.75;;;8.70;99.90;;;;;;10534778;28;20077;-62
2022/01/18 05:03:57;;;;;;;7.18;2.28;;;8.80;99.90;;;;;;10525881;28;20524;-62
2022/01/18 05:09:01;;;;;;;4.43;1.75;;;8.70;99.90;;;;;;10526235;28;20026;-61
2022/01/18 05:24:05;;;;;;;5.35;1.90;;;8.70;99.90;;;;;;10529381;28;20057;-61
2022/01/18 05:29:06;;;;;;;7.93;2.50;;;8.70;99.90;;;;;;10516774;28;20020;-62
2022/01/18 05:34:07;;;;;;;5.88;2.00;;;8.70;99.90;;;;;;10528388;28;20427;-62
2022/01/18 05:39:11;;;;;;;7.60;2.17;;;8.70;99.90;;;;;;10529924;28;20421;-62
2022/01/18 05:44:12;;;;;;;4.30;1.83;;;8.70;99.90;;;;;;10536931;28;20058;-62
2022/01/18 05:49:13;;;;;;;10.77;2.13;;;8.90;99.90;;;;;;10528151;28;20056;-62
2022/01/18 05:54:13;;;;;;;6.00;2.45;;;8.70;99.90;;;;;;10518259;28;20139;-62
2022/01/18 05:59:21;;;;;;;5.82;2.28;;;8.70;99.90;;;;;;10535132;28;20040;-62
2022/01/18 06:09:42;;;;;;;5.65;1.90;;;8.70;99.90;;;;;;10537705;28;20485;-62
2022/01/18 06:14:43;;;;;;;5.55;2.25;;;8.70;99.90;;;;;;10527921;28;20020;-62
2022/01/18 06:19:44;;;;;;;5.93;1.90;;;8.70;99.90;;;;;;10525211;28;20063;-61
2022/01/18 06:24:45;;;;;;;4.53;1.90;;;8.70;99.90;;;;;;10479131;28;20047;-62
2022/01/18 06:29:46;;;;;;;4.20;1.85;;;8.70;99.90;;;;;;10525889;28;20027;-59
2022/01/18 06:34:46;;;;;;;5.65;1.95;;;8.70;99.90;;;;;;10518878;28;20016;-62
2022/01/18 06:39:47;;;;;;;7.88;2.22;;;8.70;99.90;;;;;;10525399;28;20146;-61
2022/01/18 06:44:48;;;;;;;3.28;1.73;;;8.80;99.90;;;;;;10537071;28;20024;-62
2022/01/18 06:49:49;;;;;;;5.50;1.90;;;8.60;99.90;;;;;;10510037;28;20029;-61
2022/01/18 06:54:50;;;;;;;7.38;1.90;;;8.60;99.90;;;;;;10520838;28;20468;-62
2022/01/18 06:59:51;;;;;;;5.25;1.85;;;8.60;99.90;;;;;;10519618;28;20024;-62
2022/01/18 07:04:52;;;;;;;7.35;1.80;;;8.60;99.90;;;;;;10521775;28;20089;-61
2022/01/18 07:09:52;;;;;;;7.28;2.25;;;8.60;99.90;;;;;;10533881;28;20027;-61
2022/01/18 07:14:53;;;;;;;5.30;2.10;;;8.60;99.90;;;;;;10521999;28;20035;-62
2022/01/18 07:19:53;;;;;;;3.92;1.90;;;8.60;99.90;;;;;;10527533;28;20074;-62
2022/01/18 07:24:57;;;;;;;11.57;2.80;;;8.70;99.90;;;;;;10517700;28;20024;-62
2022/01/18 07:29:58;;;;;;;7.43;2.63;;;8.70;99.90;;;;;;10498002;28;20024;-62
2022/01/18 07:34:59;;;;;;;6.93;2.50;;;8.70;99.90;;;;;;10501899;28;20020;-60
2022/01/18 07:40:00;;;;;;;6.00;2.00;;;8.70;99.90;;;;;;10532617;28;20024;-62
2022/01/18 07:45:01;;;;;;;5.20;2.65;;;8.70;99.90;;;;;;10543314;28;20024;-61
2022/01/18 07:50:03;;;;;;;8.05;2.63;;;8.70;99.90;;;;;;10523757;28;20522;-60
2022/01/18 07:55:05;;;;;;;9.10;2.65;;;8.60;99.90;;;;;;10524376;28;20398;-62
2022/01/18 08:00:06;;;;;;;7.68;2.45;;;8.60;99.90;;;;;;10538996;28;20047;-61
2022/01/18 08:05:09;;;;;;;7.32;2.40;;;8.60;99.90;;;;;;10530226;28;20726;-62
2022/01/18 08:10:13;;;;;;;6.97;2.42;;;8.60;99.90;;;;;;10540290;28;20085;-61
2022/01/18 08:15:20;;;;;;;8.57;2.55;;;8.60;99.90;;;;;;10531263;28;20031;-62
2022/01/18 08:20:21;;;;;;;6.15;2.38;;;8.60;99.90;;;;;;10528489;28;20021;-61
2022/01/18 08:25:23;;;;;;;8.38;2.97;;;8.60;99.90;;;;;;10521582;28;20031;-59
2022/01/18 08:30:24;;;;;;;9.30;2.50;;;8.60;99.90;;;;;;10531297;28;20308;-61
2022/01/18 08:35:25;;;;;;;11.52;2.67;;;8.60;99.90;;;;;;10493888;28;20380;-61
2022/01/18 08:40:26;;;;;;;5.45;2.15;;;8.60;99.90;;;;;;10529088;28;20032;-61
2022/01/18 08:45:26;;;;;;;7.15;2.70;;;8.60;99.90;;;;;;10539550;28;20020;-60
2022/01/18 08:50:27;;;;;;;6.65;2.47;;;8.60;99.90;;;;;;10520081;28;20090;-62
2022/01/18 08:55:29;;;;;;;7.53;2.60;;;8.60;99.90;;;;;;10532392;28;20549;-63
2022/01/18 09:00:31;;;;;;;7.50;2.42;;;8.60;99.90;;;;;;10540664;28;20197;-60
2022/01/18 09:05:32;;;;;;;6.65;2.25;;;8.60;99.90;;;;;;10528773;28;20037;-62
2022/01/18 09:10:33;;;;;;;8.02;2.13;;;8.60;99.90;;;;;;10529695;28;20512;-62
2022/01/18 09:15:34;;;;;;;5.93;2.22;;;8.60;99.90;;;;;;10529556;28;20066;-62
2022/01/18 09:20:34;;;;;;;5.88;2.13;;;8.70;99.90;;;;;;10531777;28;20023;-61
2022/01/18 09:25:36;;;;;;;6.05;2.28;;;8.70;99.90;;;;;;10529148;28;20032;-62
2022/01/18 09:30:38;;;;;;;5.93;1.88;;;8.70;99.90;;;;;;10528728;28;20027;-60
2022/01/18 09:35:39;;;;;;;4.60;1.80;;;8.70;99.90;;;;;;10529707;28;20059;-62
2022/01/18 09:40:43;;;;;;;4.15;1.77;;;8.70;99.90;;;;;;10529639;28;20111;-60
2022/01/18 09:45:45;;;;;;;3.17;1.77;;;8.70;99.90;;;;;;10539836;28;20043;-60
2022/01/18 09:50:46;;;;;;;4.22;1.98;;;8.70;99.90;;;;;;10516703;28;20020;-61
2022/01/18 09:55:49;;;;;;;5.60;2.08;;;8.70;99.90;;;;;;10527564;28;20028;-62
2022/01/18 10:00:50;;;;;;;6.60;1.40;;;8.80;99.90;;;;;;10534639;28;20047;-60
2022/01/18 10:05:51;;;;;;;3.88;1.33;;;8.70;99.90;;;;;;10527862;28;20386;-61
2022/01/18 10:10:58;;;;;;;2.40;1.42;;;8.80;99.90;;;;;;10533724;28;20547;-62
2022/01/18 10:16:01;;;;;;;5.03;1.60;;;8.80;99.90;;;;;;10526677;28;20032;-63
2022/01/18 10:21:02;;;;;;;3.25;1.50;;;8.80;99.90;;;;;;10527982;28;20484;-60
2022/01/18 10:26:24;;;;;;;5.35;1.30;;;8.80;99.90;;;;;;10528918;28;20035;-61
2022/01/18 10:31:57;;;;;;;4.10;1.23;;;8.80;99.90;;;;;;10519765;28;20441;-60
2022/01/18 10:37:14;;;;;;;4.97;1.35;;;8.80;99.90;;;;;;10525585;28;20418;-62
2022/01/18 10:42:39;;;;;;;3.67;1.20;;;8.80;99.90;;;;;;10529564;28;20050;-60
2022/01/18 10:47:52;;;;;;;3.88;1.10;;;8.80;99.90;;;;;;10510601;28;20043;-61
2022/01/18 10:52:53;;;;;;;3.78;1.27;;;8.80;99.90;;;;;;10515339;28;20422;-61
2022/01/18 10:57:54;;;;;;;4.03;1.20;;;8.80;99.90;;;;;;10533034;28;20119;-60
2022/01/18 11:02:55;;;;;;;2.25;1.05;;;8.80;99.90;;;;;;10516994;28;20039;-59
2022/01/18 11:07:57;;;;;;;6.75;1.02;;;8.80;99.90;;;;;;10533410;28;20123;-61
2022/01/18 11:13:05;;;;;;;4.10;1.13;;;8.80;99.90;;;;;;10534220;28;20072;-61
2022/01/18 11:18:15;;;;;;;5.53;1.23;;;8.10;99.90;;;;;;10536920;28;20032;-61
2022/01/18 11:23:17;;;;;;;4.47;1.30;;;8.80;99.90;;;;;;10531163;28;20428;-59
2022/01/18 11:28:18;;;;;;;3.88;1.50;;;8.90;99.90;;;;;;10534583;28;20069;-60
2022/01/18 11:33:22;;;;;;;3.00;1.27;;;8.90;99.90;;;;;;10529721;28;20515;-60
2022/01/18 11:38:50;;;;;;;2.90;1.27;;;8.80;99.90;;;;;;10530643;28;20170;-62
2022/01/18 11:43:54;;;;;;;2.97;1.38;;;8.80;99.90;;;;;;10543811;28;20031;-61
2022/01/18 11:49:24;;;;;;;2.88;1.30;;;8.80;99.90;;;;;;10530964;28;20042;-59
2022/01/18 11:54:35;;;;;;;5.60;1.70;;;8.80;99.90;;;;;;10523667;28;20431;-61
2022/01/18 11:59:39;;;;;;;2.92;1.48;;;8.80;99.90;;;;;;10539616;28;20502;-61
2022/01/18 12:04:41;;;;;;;4.75;1.92;;;8.80;99.90;;;;;;10531533;28;20111;-61
2022/01/18 12:09:47;;;;;;;9.07;2.25;;;8.80;99.90;;;;;;10544144;28;20042;-62
2022/01/18 12:14:48;;;;;;;4.90;1.60;;;8.80;99.90;;;;;;10533488;28;20394;-63
2022/01/18 12:19:48;;;;;;;7.13;1.98;;;8.80;99.90;;;;;;10537287;28;20050;-62
2022/01/18 12:25:28;;;;;;;5.80;1.92;;;8.80;99.90;;;;;;10531221;28;20032;-61
2022/01/18 12:30:54;;;;;;;6.43;1.75;;;8.80;99.90;;;;;;10524191;28;20322;-61
2022/01/18 12:36:29;;;;;;;4.80;1.73;;;8.80;99.90;;;;;;10529168;28;20056;-62
2022/01/18 12:41:40;;;;;;;5.55;1.92;;;8.80;99.90;;;;;;10526058;28;20059;-60
2022/01/18 12:46:52;;;;;;;8.10;2.17;;;8.80;99.90;;;;;;10532993;28;20069;-62
2022/01/18 12:51:57;;;;;;;5.90;2.30;;;8.90;99.90;;;;;;10519038;28;20115;-63
2022/01/18 12:57:10;;;;;;;5.65;2.00;;;8.80;99.90;;;;;;10536809;28;20036;-62
2022/01/18 13:02:22;;;;;;;5.22;2.15;;;8.90;99.90;;;;;;10526069;28;20020;-61
2022/01/18 13:07:24;;;;;;;5.03;2.00;;;8.90;99.90;;;;;;10530192;28;20029;-61
2022/01/18 13:12:36;;;;;;;6.38;2.20;;;8.90;99.90;;;;;;10531724;28;20024;-62
2022/01/18 13:23:01;;;;;;;5.20;2.22;;;8.90;99.90;;;;;;10527969;28;20106;-70
2022/01/18 13:28:03;;;;;;;4.18;1.65;;;9.00;99.90;;;;;;10516611;28;20120;-61
2022/01/18 13:33:06;;;;;;;6.10;2.15;;;9.00;99.90;;;;;;10522800;28;20024;-62
2022/01/18 13:38:08;;;;;;;7.43;2.17;;;9.00;99.90;;;;;;10513920;28;20523;-61
2022/01/18 13:43:13;;;;;;;4.13;1.83;;;9.00;99.90;;;;;;10499519;28;20089;-62
2022/01/18 13:48:14;;;;;;;5.40;2.00;;;9.00;99.90;;;;;;10527835;28;20032;-61
2022/01/18 13:53:28;;;;;;;5.47;2.30;;;9.00;99.90;;;;;;10504242;28;20020;-62
2022/01/18 13:58:32;;;;;;;6.30;1.98;;;9.00;99.90;;;;;;10534298;28;20039;-61
2022/01/18 14:03:35;;;;;;;6.63;2.30;;;8.90;99.90;;;;;;10524544;28;20016;-62
2022/01/18 14:08:39;;;;;;;8.23;2.67;;;8.90;99.90;;;;;;10526944;28;20020;-60
2022/01/18 14:13:40;;;;;;;9.43;2.92;;;8.90;99.90;;;;;;10521058;28;20065;-59
2022/01/18 14:18:53;;;;;;;7.22;3.08;;;8.90;99.90;;;;;;10534673;28;20040;-61
2022/01/18 14:24:12;;;;;;;7.95;2.80;;;8.90;99.90;;;;;;10533025;28;20024;-61
2022/01/18 14:29:13;;;;;;;11.10;3.33;;;8.80;99.90;;;;;;10521049;28;20048;-61
2022/01/18 14:34:30;;;;;;;9.40;2.95;;;8.90;99.90;;;;;;10524184;28;20446;-60
2022/01/18 14:39:30;;;;;;;10.50;3.30;;;8.80;99.90;;;;;;10525868;28;20048;-60
2022/01/18 14:44:47;;;;;;;9.10;3.53;;;8.80;99.90;;;;;;10524879;28;20028;-59
2022/01/18 14:49:48;;;;;;;9.98;3.72;;;8.80;99.90;;;;;;10515760;28;20497;-59
2022/01/18 14:54:49;;;;;;;8.63;3.65;;;8.80;99.90;;;;;;10519498;28;20032;-57
2022/01/18 14:59:51;;;;;;;9.02;3.97;;;8.80;99.90;;;;;;10531159;28;20476;-58
2022/01/18 15:04:51;;;;;;;11.23;3.55;;;8.70;99.90;;;;;;10523416;28;20024;-58
2022/01/18 15:09:52;;;;;;;10.20;4.03;;;8.70;99.90;;;;;;10534148;28;20042;-58
2022/01/18 15:14:53;;;;;;;16.58;4.30;;;8.90;99.90;;;;;;10528733;28;20024;-60
2022/01/18 15:19:54;;;;;;;12.48;3.88;;;8.80;99.90;;;;;;10530842;28;20048;-62
2022/01/18 15:24:55;;;;;;;9.68;3.78;;;8.70;99.90;;;;;;10513493;28;20023;-60
2022/01/18 15:29:56;;;;;;;11.65;4.03;;;8.70;99.90;;;;;;10500752;28;20402;-59
2022/01/18 15:34:56;;;;;;;10.38;3.75;;;8.70;99.90;;;;;;10514209;28;20024;-61
2022/01/18 15:40:01;;;;;;;11.10;4.53;;;8.60;99.90;;;;;;10498627;28;20094;-58
2022/01/18 15:45:04;;;;;;;10.68;4.03;;;8.60;99.90;;;;;;10493686;28;20027;-61
2022/01/18 15:50:06;;;;;;;9.50;3.50;;;8.60;99.90;;;;;;10505553;28;20008;-60
2022/01/18 15:55:07;;;;;;;11.68;4.00;;;8.60;99.90;;;;;;10533334;28;20513;-61
2022/01/18 16:00:09;;;;;;;8.45;3.55;;;8.60;99.90;;;;;;10537395;28;20039;-58
2022/01/18 16:05:09;;;;;;;7.05;3.30;;;8.60;99.90;;;;;;10534332;28;20295;-61
2022/01/18 16:10:10;;;;;;;7.30;3.45;;;8.60;99.90;;;;;;10532156;28;20059;-60
2022/01/18 16:15:11;;;;;;;9.82;3.40;;;8.50;99.90;;;;;;10529849;28;20523;-62
2022/01/18 16:20:11;;;;;;;14.13;4.43;;;8.50;99.90;;;;;;10506320;28;20028;-61
2022/01/18 16:25:12;;;;;;;12.02;3.85;;;8.60;99.90;;;;;;10527613;28;20024;-61
2022/01/18 16:30:13;;;;;;;6.95;3.60;;;8.60;99.90;;;;;;10522630;28;20028;-61
2022/01/18 16:35:14;;;;;;;8.90;4.00;;;8.50;99.90;;;;;;10531353;28;20027;-62
2022/01/18 16:40:15;;;;;;;11.60;4.25;;;8.60;99.90;;;;;;10531688;28;20083;-62
2022/01/18 16:45:19;;;;;;;7.32;3.20;;;8.50;99.90;;;;;;10526280;28;20557;-62
2022/01/18 16:50:20;;;;;;;8.68;4.10;;;8.50;99.90;;;;;;10498174;28;20078;-62
2022/01/18 16:55:21;;;;;;;8.63;4.38;;;8.70;99.90;;;;;;10510995;28;20051;-63
2022/01/18 17:00:22;;;;;;;10.70;4.25;;;8.40;99.90;;;;;;10509579;28;20051;-60
2022/01/18 17:05:23;;;;;;;9.68;4.65;;;8.40;99.90;;;;;;10507074;28;20134;-62
2022/01/18 17:10:24;;;;;;;9.98;4.68;;;8.30;99.90;;;;;;10512705;28;20040;-62
2022/01/18 17:15:24;;;;;;;10.63;4.50;;;8.20;99.90;;;;;;10506798;28;20090;-59
2022/01/18 17:20:27;;;;;;;12.73;5.10;;;8.20;99.90;;;;;;10526525;28;20502;-62
2022/01/18 17:25:30;;;;;;;9.77;4.60;;;8.20;99.90;;;;;;10533183;28;20109;-62
2022/01/18 17:30:30;;;;;;;10.98;4.53;;;8.20;99.90;;;;;;10531554;28;20387;-61
2022/01/18 17:35:31;;;;;;;10.45;4.50;;;8.30;99.90;;;;;;10528967;28;20020;-63
2022/01/18 17:40:33;;;;;;;10.52;4.97;;;8.30;99.90;;;;;;10526537;28;20090;-60
2022/01/18 17:45:34;;;;;;;9.35;4.63;;;8.30;99.90;;;;;;10518714;28;20031;-62
2022/01/18 17:50:35;;;;;;;10.02;4.93;;;8.30;99.90;;;;;;10512466;28;20537;-62
2022/01/18 17:55:36;;;;;;;9.75;4.50;;;8.30;99.90;;;;;;10519128;28;20021;-62
2022/01/18 18:00:38;;;;;;;13.00;5.95;;;8.30;99.90;;;;;;10532882;28;20016;-62
2022/01/18 18:05:39;;;;;;;11.38;5.28;;;8.30;99.90;;;;;;10525391;28;20017;-61
2022/01/18 18:10:40;;;;;;;9.90;4.40;;;8.40;99.90;;;;;;10519656;28;20046;-62
2022/01/18 18:15:44;;;;;;;12.57;5.75;;;8.30;99.90;;;;;;10527381;28;20043;-60
2022/01/18 18:20:45;;;;;;;11.35;5.03;;;8.30;99.90;;;;;;10532293;28;20035;-62
2022/01/18 18:25:45;;;;;;;11.82;4.80;;;8.40;99.90;;;;;;10526492;28;20020;-61
2022/01/18 18:30:48;;;;;;;13.02;4.85;;;8.30;99.90;;;;;;10526949;28;20097;-62
2022/01/18 18:35:49;;;;;;;11.05;4.97;;;8.60;99.90;;;;;;10526445;28;20044;-60
2022/01/18 18:41:02;;;;;;;9.35;4.47;;;8.40;99.90;;;;;;10526616;28;20020;-63
2022/01/18 18:46:05;;;;;;;12.50;5.35;;;8.40;99.90;;;;;;10521599;28;20504;-63
2022/01/18 18:51:06;;;;;;;14.48;5.60;;;8.40;99.90;;;;;;10513192;28;20050;-61
2022/01/18 18:56:07;;;;;;;14.55;5.28;;;8.40;99.90;;;;;;10526055;28;20048;-62
2022/01/18 19:01:08;;;;;;;13.70;5.43;;;8.30;99.90;;;;;;10507569;28;20058;-63
2022/01/18 19:06:09;;;;;;;15.15;5.95;;;8.40;99.90;;;;;;10513482;28;20032;-62
2022/01/18 19:11:10;;;;;;;15.68;6.80;;;8.40;99.90;;;;;;10508051;28;20020;-59
2022/01/18 19:16:11;;;;;;;15.32;5.63;;;8.30;99.90;;;;;;10518047;28;20052;-62
2022/01/18 19:21:13;;;;;;;13.80;5.68;;;8.30;99.90;;;;;;10524712;28;20036;-61
2022/01/18 19:26:15;;;;;;;16.33;6.35;;;8.30;99.90;;;;;;10523349;28;20035;-60
2022/01/18 19:31:15;;;;;;;16.80;6.53;;;8.30;99.90;;;;;;10525790;28;20024;-62
2022/01/18 19:36:17;;;;;;;16.65;6.68;;;8.30;99.90;;;;;;10521797;28;20426;-63
2022/01/18 19:41:18;;;;;;;21.20;7.00;;;8.30;99.90;;;;;;10517825;28;20025;-60
2022/01/18 19:46:19;;;;;;;19.15;7.22;;;8.30;99.90;;;;;;10524730;28;20032;-59
2022/01/18 19:51:19;;;;;;;21.88;7.78;;;8.30;99.90;;;;;;10525206;28;20016;-61
2022/01/18 19:56:20;;;;;;;21.75;7.38;;;8.50;99.90;;;;;;10530058;28;20436;-63
2022/01/18 20:01:23;;;;;;;23.20;8.15;;;8.30;99.90;;;;;;10521986;28;20030;-60
2022/01/18 20:06:23;;;;;;;22.38;8.23;;;8.30;99.90;;;;;;10511921;28;20354;-60
2022/01/18 20:11:27;;;;;;;21.45;8.35;;;8.30;99.90;;;;;;10499277;28;20036;-61
2022/01/18 20:16:29;;;;;;;24.02;8.90;;;8.30;99.90;;;;;;10503963;28;20059;-62
2022/01/18 20:21:30;;;;;;;24.38;7.75;;;8.30;99.90;;;;;;10518680;28;20034;-61
2022/01/18 20:26:31;;;;;;;23.83;8.43;;;8.30;99.90;;;;;;10518609;28;20031;-61
2022/01/18 20:31:31;;;;;;;22.40;8.70;;;8.30;99.90;;;;;;10494941;28;20366;-61
2022/01/18 20:36:33;;;;;;;27.20;9.70;;;8.30;99.90;;;;;;10504434;28;20168;-63
2022/01/18 20:43:34;;;;;;;25.00;9.77;;;8.20;99.90;;;;;;10502331;28;20032;-62
2022/01/18 20:46:56;;;;;;;25.15;10.38;;;8.30;99.90;;;;;;10495160;28;20039;-62
2022/01/18 20:51:56;;;;;;;27.20;10.25;;;8.30;99.90;;;;;;10515058;28;20062;-61
2022/01/18 20:56:58;;;;;;;28.08;10.48;;;8.30;99.90;;;;;;10531352;28;20464;-60
2022/01/18 21:01:59;;;;;;;29.95;10.70;;;8.30;99.90;;;;;;10505937;28;20021;-60
2022/01/18 21:07:02;;;;;;;27.02;10.20;;;8.20;99.90;;;;;;10518616;28;20016;-60
2022/01/18 21:12:05;;;;;;;23.48;9.55;;;8.30;99.90;;;;;;10509640;28;20061;-59
2022/01/18 21:17:08;;;;;;;29.67;9.98;;;8.20;99.90;;;;;;10505861;28;20032;-60
2022/01/18 21:22:08;;;;;;;26.63;9.75;;;8.20;99.90;;;;;;10512386;28;20048;-60
2022/01/18 21:27:09;;;;;;;29.27;11.18;;;8.40;99.90;;;;;;10478271;28;20123;-61
2022/01/18 21:32:10;;;;;;;33.50;11.43;;;8.20;99.90;;;;;;10505858;28;20036;-60
2022/01/18 21:37:11;;;;;;;33.15;11.25;;;8.30;99.90;;;;;;10498586;28;20054;-62
2022/01/18 21:42:12;;;;;;;28.75;10.80;;;8.20;99.90;;;;;;10513605;28;20356;-61
2022/01/18 21:47:13;;;;;;;30.77;11.57;;;8.20;99.90;;;;;;10504530;28;20032;-58
2022/01/18 21:52:13;;;;;;;31.80;12.10;;;8.20;99.90;;;;;;10497669;28;20347;-62
2022/01/18 21:57:14;;;;;;;31.13;12.05;;;8.20;99.90;;;;;;10526994;28;20123;-60
2022/01/18 22:02:15;;;;;;;32.67;11.65;;;8.20;99.90;;;;;;10511330;28;20024;-60
2022/01/18 22:07:18;;;;;;;29.70;11.93;;;8.20;99.90;;;;;;10484966;28;20033;-60
2022/01/18 22:12:19;;;;;;;34.45;12.18;;;8.20;99.90;;;;;;10494190;28;20200;-60
2022/01/18 22:17:20;;;;;;;33.22;12.18;;;8.30;99.90;;;;;;10492647;28;20041;-60
2022/01/18 22:22:20;;;;;;;31.73;12.65;;;8.20;99.90;;;;;;10502032;28;20021;-60
2022/01/18 22:27:21;;;;;;;35.03;13.05;;;8.20;99.90;;;;;;10510517;28;20082;-62
2022/01/18 22:32:22;;;;;;;34.88;13.60;;;8.20;99.90;;;;;;10509280;28;20009;-60
2022/01/18 22:37:23;;;;;;;34.97;12.70;;;8.20;99.90;;;;;;10511477;28;20048;-59
2022/01/18 22:42:23;;;;;;;37.20;13.77;;;8.20;99.90;;;;;;10508208;28;20024;-60
2022/01/18 22:47:24;;;;;;;41.80;14.70;;;8.10;99.90;;;;;;10508492;28;20034;-60
2022/01/18 22:52:30;;;;;;;36.00;12.95;;;8.20;99.90;;;;;;10504807;28;20024;-59
2022/01/18 22:57:31;;;;;;;33.40;12.68;;;8.20;99.90;;;;;;10533306;28;20031;-61
2022/01/18 23:02:33;;;;;;;31.85;13.00;;;8.20;99.90;;;;;;10520462;28;20035;-62
2022/01/18 23:07:33;;;;;;;31.67;12.60;;;8.20;99.90;;;;;;10523623;28;20493;-59
2022/01/18 23:12:34;;;;;;;34.42;12.55;;;8.20;99.90;;;;;;10509909;28;20032;-62
2022/01/18 23:17:35;;;;;;;28.95;12.38;;;8.20;99.90;;;;;;10523909;28;20394;-61
2022/01/18 23:22:36;;;;;;;36.33;13.02;;;8.20;99.90;;;;;;10527754;28;20534;-59
2022/01/18 23:27:37;;;;;;;36.95;13.02;;;8.20;99.90;;;;;;10525850;28;20024;-62
2022/01/18 23:32:37;;;;;;;32.10;12.38;;;8.20;99.90;;;;;;10507840;28;20406;-62
2022/01/18 23:37:41;;;;;;;30.25;11.85;;;8.30;99.90;;;;;;10516395;28;20464;-61
2022/01/18 23:42:42;;;;;;;31.65;11.35;;;8.20;99.90;;;;;;10520031;28;20028;-62
2022/01/18 23:47:42;;;;;;;33.58;11.00;;;8.20;99.90;;;;;;10526062;28;20032;-62
2022/01/18 23:52:43;;;;;;;31.52;12.07;;;8.20;99.90;;;;;;10515875;28;20089;-62
2022/01/18 23:57:44;;;;;;;31.15;11.57;;;8.20;99.90;;;;;;10534093;28;20040;-61
